sensor_id;sensor_type;location;lat;lon;timestamp;P1;durP1;ratioP1;P2;durP2;ratioP2
41305;SDS011;27051;50.376;19.152;2023-08-06T00:01:35;29.90;;;18.10;;
41305;SDS011;27051;50.376;19.152;2023-08-06T00:04:01;25.80;;;16.00;;
41305;SDS011;27051;50.376;19.152;2023-08-06T00:06:28;24.80;;;14.50;;
41305;SDS011;27051;50.376;19.152;2023-08-06T00:09:03;21.60;;;13.50;;
41305;SDS011;27051;50.376;19.152;2023-08-06T00:14:58;23.40;;;12.80;;
41305;SDS011;27051;50.376;19.152;2023-08-06T00:17:31;23.70;;;14.20;;
41305;SDS011;27051;50.376;19.152;2023-08-06T00:25:48;22.90;;;12.60;;
41305;SDS011;27051;50.376;19.152;2023-08-06T00:28:28;20.70;;;11.40;;
41305;SDS011;27051;50.376;19.152;2023-08-06T00:31:16;21.50;;;11.80;;
41305;SDS011;27051;50.376;19.152;2023-08-06T00:33:47;20.90;;;12.00;;
41305;SDS011;27051;50.376;19.152;2023-08-06T00:41:32;18.10;;;10.70;;
41305;SDS011;27051;50.376;19.152;2023-08-06T00:43:59;19.60;;;11.30;;
41305;SDS011;27051;50.376;19.152;2023-08-06T00:49:04;16.90;;;8.50;;
41305;SDS011;27051;50.376;19.152;2023-08-06T00:51:31;16.50;;;8.20;;
41305;SDS011;27051;50.376;19.152;2023-08-06T00:53:58;13.80;;;7.60;;
41305;SDS011;27051;50.376;19.152;2023-08-06T00:56:28;15.90;;;7.70;;
41305;SDS011;27051;50.376;19.152;2023-08-06T00:58:55;11.10;;;7.00;;
41305;SDS011;27051;50.376;19.152;2023-08-06T01:04:08;13.60;;;8.30;;
41305;SDS011;27051;50.376;19.152;2023-08-06T01:15:24;10.60;;;6.70;;
41305;SDS011;27051;50.376;19.152;2023-08-06T01:23:22;9.80;;;6.70;;
41305;SDS011;27051;50.376;19.152;2023-08-06T01:26:27;12.60;;;7.50;;
41305;SDS011;27051;50.376;19.152;2023-08-06T01:29:02;13.40;;;8.90;;
41305;SDS011;27051;50.376;19.152;2023-08-06T01:31:38;10.20;;;6.60;;
41305;SDS011;27051;50.376;19.152;2023-08-06T01:34:09;10.90;;;6.60;;
41305;SDS011;27051;50.376;19.152;2023-08-06T01:36:52;10.80;;;7.00;;
41305;SDS011;27051;50.376;19.152;2023-08-06T01:39:22;12.10;;;8.40;;
41305;SDS011;27051;50.376;19.152;2023-08-06T01:41:56;12.60;;;8.40;;
41305;SDS011;27051;50.376;19.152;2023-08-06T01:44:32;12.30;;;8.30;;
41305;SDS011;27051;50.376;19.152;2023-08-06T01:50:09;9.00;;;6.10;;
41305;SDS011;27051;50.376;19.152;2023-08-06T01:52:35;8.00;;;6.10;;
41305;SDS011;27051;50.376;19.152;2023-08-06T01:55:07;7.70;;;5.40;;
41305;SDS011;27051;50.376;19.152;2023-08-06T01:57:34;8.10;;;6.00;;
41305;SDS011;27051;50.376;19.152;2023-08-06T02:00:08;12.00;;;7.20;;
41305;SDS011;27051;50.376;19.152;2023-08-06T02:02:57;11.90;;;7.90;;
41305;SDS011;27051;50.376;19.152;2023-08-06T02:05:24;12.40;;;6.60;;
41305;SDS011;27051;50.376;19.152;2023-08-06T02:07:51;9.30;;;6.20;;
41305;SDS011;27051;50.376;19.152;2023-08-06T02:10:20;10.20;;;5.90;;
41305;SDS011;27051;50.376;19.152;2023-08-06T02:12:47;7.00;;;5.80;;
41305;SDS011;27051;50.376;19.152;2023-08-06T02:15:13;7.90;;;5.50;;
41305;SDS011;27051;50.376;19.152;2023-08-06T02:18:02;10.40;;;5.50;;
41305;SDS011;27051;50.376;19.152;2023-08-06T02:20:27;8.80;;;6.10;;
41305;SDS011;27051;50.376;19.152;2023-08-06T02:22:54;8.70;;;6.10;;
41305;SDS011;27051;50.376;19.152;2023-08-06T02:25:20;8.80;;;6.00;;
41305;SDS011;27051;50.376;19.152;2023-08-06T02:27:47;12.20;;;6.40;;
41305;SDS011;27051;50.376;19.152;2023-08-06T02:30:16;10.20;;;5.60;;
41305;SDS011;27051;50.376;19.152;2023-08-06T02:33:03;8.60;;;6.30;;
41305;SDS011;27051;50.376;19.152;2023-08-06T02:35:32;12.00;;;5.40;;
41305;SDS011;27051;50.376;19.152;2023-08-06T02:38:19;9.60;;;6.60;;
41305;SDS011;27051;50.376;19.152;2023-08-06T02:40:46;9.30;;;5.70;;
41305;SDS011;27051;50.376;19.152;2023-08-06T02:46:30;8.40;;;5.60;;
41305;SDS011;27051;50.376;19.152;2023-08-06T02:48:55;7.90;;;5.40;;
41305;SDS011;27051;50.376;19.152;2023-08-06T02:51:44;8.00;;;5.60;;
41305;SDS011;27051;50.376;19.152;2023-08-06T02:54:17;8.40;;;5.50;;
41305;SDS011;27051;50.376;19.152;2023-08-06T02:56:45;7.40;;;5.30;;
41305;SDS011;27051;50.376;19.152;2023-08-06T02:59:25;9.50;;;6.80;;
41305;SDS011;27051;50.376;19.152;2023-08-06T03:04:28;8.90;;;6.70;;
41305;SDS011;27051;50.376;19.152;2023-08-06T03:15:35;7.20;;;5.30;;
41305;SDS011;27051;50.376;19.152;2023-08-06T03:18:02;10.00;;;6.20;;
41305;SDS011;27051;50.376;19.152;2023-08-06T03:20:40;11.80;;;7.50;;
41305;SDS011;27051;50.376;19.152;2023-08-06T03:25:50;11.10;;;7.00;;
41305;SDS011;27051;50.376;19.152;2023-08-06T03:31:19;11.20;;;6.80;;
41305;SDS011;27051;50.376;19.152;2023-08-06T03:34:06;9.00;;;6.60;;
41305;SDS011;27051;50.376;19.152;2023-08-06T03:36:35;11.00;;;6.10;;
41305;SDS011;27051;50.376;19.152;2023-08-06T03:39:23;10.80;;;5.90;;
41305;SDS011;27051;50.376;19.152;2023-08-06T03:41:52;9.00;;;6.00;;
41305;SDS011;27051;50.376;19.152;2023-08-06T03:50:02;11.80;;;7.30;;
41305;SDS011;27051;50.376;19.152;2023-08-06T03:52:29;12.90;;;7.10;;
41305;SDS011;27051;50.376;19.152;2023-08-06T03:54:55;14.00;;;7.60;;
41305;SDS011;27051;50.376;19.152;2023-08-06T03:57:22;12.60;;;7.30;;
41305;SDS011;27051;50.376;19.152;2023-08-06T03:59:51;17.20;;;7.40;;
41305;SDS011;27051;50.376;19.152;2023-08-06T04:02:20;13.70;;;8.30;;
41305;SDS011;27051;50.376;19.152;2023-08-06T04:04:49;14.40;;;9.60;;
41305;SDS011;27051;50.376;19.152;2023-08-06T04:07:57;16.10;;;10.10;;
41305;SDS011;27051;50.376;19.152;2023-08-06T04:10:24;21.10;;;11.90;;
41305;SDS011;27051;50.376;19.152;2023-08-06T04:12:51;20.80;;;12.20;;
41305;SDS011;27051;50.376;19.152;2023-08-06T04:15:40;21.70;;;12.10;;
41305;SDS011;27051;50.376;19.152;2023-08-06T04:18:07;21.60;;;12.70;;
41305;SDS011;27051;50.376;19.152;2023-08-06T04:20:54;23.20;;;12.90;;
41305;SDS011;27051;50.376;19.152;2023-08-06T04:23:23;23.00;;;13.00;;
41305;SDS011;27051;50.376;19.152;2023-08-06T04:25:59;28.30;;;15.00;;
41305;SDS011;27051;50.376;19.152;2023-08-06T04:28:57;25.20;;;14.10;;
41305;SDS011;27051;50.376;19.152;2023-08-06T04:31:23;26.40;;;14.60;;
41305;SDS011;27051;50.376;19.152;2023-08-06T04:33:52;23.50;;;13.30;;
41305;SDS011;27051;50.376;19.152;2023-08-06T04:36:19;24.90;;;14.20;;
41305;SDS011;27051;50.376;19.152;2023-08-06T04:39:10;27.50;;;13.50;;
41305;SDS011;27051;50.376;19.152;2023-08-06T04:47:30;23.10;;;13.50;;
41305;SDS011;27051;50.376;19.152;2023-08-06T04:52:59;27.10;;;14.80;;
41305;SDS011;27051;50.376;19.152;2023-08-06T05:01:16;27.20;;;15.20;;
41305;SDS011;27051;50.376;19.152;2023-08-06T05:03:46;27.20;;;14.70;;
41305;SDS011;27051;50.376;19.152;2023-08-06T05:06:23;28.90;;;15.20;;
41305;SDS011;27051;50.376;19.152;2023-08-06T05:08:52;33.20;;;16.50;;
41305;SDS011;27051;50.376;19.152;2023-08-06T05:12:00;33.20;;;17.10;;
41305;SDS011;27051;50.376;19.152;2023-08-06T05:17:37;37.90;;;18.20;;
41305;SDS011;27051;50.376;19.152;2023-08-06T05:23:34;42.50;;;20.80;;
41305;SDS011;27051;50.376;19.152;2023-08-06T05:26:45;40.00;;;20.70;;
41305;SDS011;27051;50.376;19.152;2023-08-06T05:32:12;43.00;;;20.60;;
41305;SDS011;27051;50.376;19.152;2023-08-06T05:37:59;40.70;;;18.30;;
41305;SDS011;27051;50.376;19.152;2023-08-06T05:43:24;40.00;;;17.10;;
41305;SDS011;27051;50.376;19.152;2023-08-06T05:45:53;36.00;;;17.80;;
41305;SDS011;27051;50.376;19.152;2023-08-06T05:48:42;40.10;;;17.80;;
41305;SDS011;27051;50.376;19.152;2023-08-06T06:00:36;55.10;;;18.90;;
41305;SDS011;27051;50.376;19.152;2023-08-06T06:06:02;44.30;;;19.50;;
41305;SDS011;27051;50.376;19.152;2023-08-06T06:11:46;33.80;;;18.80;;
41305;SDS011;27051;50.376;19.152;2023-08-06T06:14:13;33.30;;;17.70;;
41305;SDS011;27051;50.376;19.152;2023-08-06T06:17:10;36.50;;;18.40;;
41305;SDS011;27051;50.376;19.152;2023-08-06T06:19:35;32.00;;;17.70;;
41305;SDS011;27051;50.376;19.152;2023-08-06T06:25:29;40.40;;;20.60;;
41305;SDS011;27051;50.376;19.152;2023-08-06T06:30:54;37.10;;;19.10;;
41305;SDS011;27051;50.376;19.152;2023-08-06T06:33:54;40.70;;;20.60;;
41305;SDS011;27051;50.376;19.152;2023-08-06T06:36:42;38.70;;;20.10;;
41305;SDS011;27051;50.376;19.152;2023-08-06T06:39:10;36.60;;;21.70;;
41305;SDS011;27051;50.376;19.152;2023-08-06T06:41:57;30.90;;;17.30;;
41305;SDS011;27051;50.376;19.152;2023-08-06T06:44:55;23.10;;;12.80;;
41305;SDS011;27051;50.376;19.152;2023-08-06T06:47:29;23.30;;;13.40;;
41305;SDS011;27051;50.376;19.152;2023-08-06T06:49:56;20.00;;;10.70;;
41305;SDS011;27051;50.376;19.152;2023-08-06T06:52:44;10.80;;;7.00;;
41305;SDS011;27051;50.376;19.152;2023-08-06T06:55:20;9.70;;;5.60;;
41305;SDS011;27051;50.376;19.152;2023-08-06T06:57:46;12.40;;;6.10;;
41305;SDS011;27051;50.376;19.152;2023-08-06T07:00:23;11.20;;;5.20;;
41305;SDS011;27051;50.376;19.152;2023-08-06T07:02:50;10.40;;;4.40;;
41305;SDS011;27051;50.376;19.152;2023-08-06T07:05:16;8.60;;;4.30;;
41305;SDS011;27051;50.376;19.152;2023-08-06T07:07:45;10.90;;;4.10;;
41305;SDS011;27051;50.376;19.152;2023-08-06T07:10:12;8.80;;;4.80;;
41305;SDS011;27051;50.376;19.152;2023-08-06T07:12:46;7.20;;;3.20;;
41305;SDS011;27051;50.376;19.152;2023-08-06T07:15:13;3.10;;;1.90;;
41305;SDS011;27051;50.376;19.152;2023-08-06T07:17:39;5.20;;;1.70;;
41305;SDS011;27051;50.376;19.152;2023-08-06T07:20:06;2.10;;;1.20;;
41305;SDS011;27051;50.376;19.152;2023-08-06T07:22:33;3.30;;;0.80;;
41305;SDS011;27051;50.376;19.152;2023-08-06T07:25:00;1.70;;;0.90;;
41305;SDS011;27051;50.376;19.152;2023-08-06T07:27:26;2.10;;;0.60;;
41305;SDS011;27051;50.376;19.152;2023-08-06T07:29:55;2.70;;;0.60;;
41305;SDS011;27051;50.376;19.152;2023-08-06T07:32:22;2.50;;;0.90;;
41305;SDS011;27051;50.376;19.152;2023-08-06T07:34:51;2.60;;;0.80;;
41305;SDS011;27051;50.376;19.152;2023-08-06T07:37:20;5.30;;;0.80;;
41305;SDS011;27051;50.376;19.152;2023-08-06T07:39:52;3.70;;;1.40;;
41305;SDS011;27051;50.376;19.152;2023-08-06T07:42:19;2.60;;;1.20;;
41305;SDS011;27051;50.376;19.152;2023-08-06T07:44:55;15.80;;;2.60;;
41305;SDS011;27051;50.376;19.152;2023-08-06T07:47:22;5.10;;;1.30;;
41305;SDS011;27051;50.376;19.152;2023-08-06T07:49:49;3.20;;;1.00;;
41305;SDS011;27051;50.376;19.152;2023-08-06T07:52:25;4.10;;;1.00;;
41305;SDS011;27051;50.376;19.152;2023-08-06T07:54:51;4.00;;;0.70;;
41305;SDS011;27051;50.376;19.152;2023-08-06T07:57:18;1.10;;;0.50;;
41305;SDS011;27051;50.376;19.152;2023-08-06T07:59:44;2.60;;;0.50;;
41305;SDS011;27051;50.376;19.152;2023-08-06T08:02:20;0.90;;;0.50;;
41305;SDS011;27051;50.376;19.152;2023-08-06T08:04:46;3.50;;;0.60;;
41305;SDS011;27051;50.376;19.152;2023-08-06T08:07:13;1.00;;;0.50;;
41305;SDS011;27051;50.376;19.152;2023-08-06T08:09:39;1.50;;;0.70;;
41305;SDS011;27051;50.376;19.152;2023-08-06T08:14:46;2.40;;;1.20;;
41305;SDS011;27051;50.376;19.152;2023-08-06T08:17:13;3.90;;;1.70;;
41305;SDS011;27051;50.376;19.152;2023-08-06T08:19:43;5.00;;;2.90;;
41305;SDS011;27051;50.376;19.152;2023-08-06T08:22:09;2.30;;;1.50;;
41305;SDS011;27051;50.376;19.152;2023-08-06T08:24:36;3.40;;;1.70;;
41305;SDS011;27051;50.376;19.152;2023-08-06T08:27:03;2.70;;;1.80;;
41305;SDS011;27051;50.376;19.152;2023-08-06T08:29:30;3.80;;;2.50;;
41305;SDS011;27051;50.376;19.152;2023-08-06T08:31:56;3.30;;;1.70;;
41305;SDS011;27051;50.376;19.152;2023-08-06T08:34:23;0.80;;;0.70;;
41305;SDS011;27051;50.376;19.152;2023-08-06T08:36:49;1.70;;;0.90;;
41305;SDS011;27051;50.376;19.152;2023-08-06T08:39:16;0.90;;;0.80;;
41305;SDS011;27051;50.376;19.152;2023-08-06T08:41:43;1.00;;;0.80;;
41305;SDS011;27051;50.376;19.152;2023-08-06T08:44:09;1.50;;;0.90;;
41305;SDS011;27051;50.376;19.152;2023-08-06T08:46:40;2.30;;;0.80;;
41305;SDS011;27051;50.376;19.152;2023-08-06T08:49:16;3.00;;;1.70;;
41305;SDS011;27051;50.376;19.152;2023-08-06T08:51:44;4.00;;;1.60;;
41305;SDS011;27051;50.376;19.152;2023-08-06T08:54:12;3.30;;;1.70;;
41305;SDS011;27051;50.376;19.152;2023-08-06T08:56:40;4.30;;;2.20;;
41305;SDS011;27051;50.376;19.152;2023-08-06T08:59:07;4.30;;;2.60;;
41305;SDS011;27051;50.376;19.152;2023-08-06T09:01:34;2.20;;;1.90;;
41305;SDS011;27051;50.376;19.152;2023-08-06T09:04:01;3.00;;;1.70;;
41305;SDS011;27051;50.376;19.152;2023-08-06T09:06:31;2.20;;;1.60;;
41305;SDS011;27051;50.376;19.152;2023-08-06T09:09:06;3.00;;;2.30;;
41305;SDS011;27051;50.376;19.152;2023-08-06T09:11:36;2.10;;;1.70;;
41305;SDS011;27051;50.376;19.152;2023-08-06T09:14:09;3.40;;;2.30;;
41305;SDS011;27051;50.376;19.152;2023-08-06T09:16:37;2.20;;;1.90;;
41305;SDS011;27051;50.376;19.152;2023-08-06T09:19:10;6.00;;;3.20;;
41305;SDS011;27051;50.376;19.152;2023-08-06T09:21:41;4.70;;;2.50;;
41305;SDS011;27051;50.376;19.152;2023-08-06T09:24:17;2.20;;;2.00;;
41305;SDS011;27051;50.376;19.152;2023-08-06T09:26:53;2.50;;;1.90;;
41305;SDS011;27051;50.376;19.152;2023-08-06T09:29:19;2.50;;;2.20;;
41305;SDS011;27051;50.376;19.152;2023-08-06T09:31:47;2.40;;;2.20;;
41305;SDS011;27051;50.376;19.152;2023-08-06T09:34:19;4.90;;;1.70;;
41305;SDS011;27051;50.376;19.152;2023-08-06T09:36:48;2.60;;;1.70;;
41305;SDS011;27051;50.376;19.152;2023-08-06T09:39:16;18.90;;;11.10;;
41305;SDS011;27051;50.376;19.152;2023-08-06T09:44:34;3.40;;;2.50;;
41305;SDS011;27051;50.376;19.152;2023-08-06T09:47:06;1.90;;;1.50;;
41305;SDS011;27051;50.376;19.152;2023-08-06T09:52:17;1.20;;;1.10;;
41305;SDS011;27051;50.376;19.152;2023-08-06T09:54:47;1.10;;;1.00;;
41305;SDS011;27051;50.376;19.152;2023-08-06T09:57:16;1.50;;;1.30;;
41305;SDS011;27051;50.376;19.152;2023-08-06T09:59:55;3.30;;;1.20;;
41305;SDS011;27051;50.376;19.152;2023-08-06T10:02:22;1.90;;;1.40;;
41305;SDS011;27051;50.376;19.152;2023-08-06T10:04:51;1.10;;;1.00;;
41305;SDS011;27051;50.376;19.152;2023-08-06T10:07:21;2.80;;;1.30;;
41305;SDS011;27051;50.376;19.152;2023-08-06T10:10:09;2.00;;;0.90;;
41305;SDS011;27051;50.376;19.152;2023-08-06T10:12:37;9.80;;;7.30;;
41305;SDS011;27051;50.376;19.152;2023-08-06T10:15:12;7.10;;;5.20;;
41305;SDS011;27051;50.376;19.152;2023-08-06T10:17:44;1.30;;;1.10;;
41305;SDS011;27051;50.376;19.152;2023-08-06T10:20:13;1.30;;;0.80;;
41305;SDS011;27051;50.376;19.152;2023-08-06T10:22:43;1.10;;;0.60;;
41305;SDS011;27051;50.376;19.152;2023-08-06T10:25:25;0.70;;;0.70;;
41305;SDS011;27051;50.376;19.152;2023-08-06T10:27:53;2.10;;;1.00;;
41305;SDS011;27051;50.376;19.152;2023-08-06T10:30:24;1.20;;;1.00;;
41305;SDS011;27051;50.376;19.152;2023-08-06T10:32:55;1.30;;;1.10;;
41305;SDS011;27051;50.376;19.152;2023-08-06T10:35:47;0.80;;;0.80;;
41305;SDS011;27051;50.376;19.152;2023-08-06T10:41:09;1.40;;;1.30;;
41305;SDS011;27051;50.376;19.152;2023-08-06T10:43:42;0.90;;;0.80;;
41305;SDS011;27051;50.376;19.152;2023-08-06T10:46:10;2.40;;;1.20;;
41305;SDS011;27051;50.376;19.152;2023-08-06T10:48:43;2.40;;;0.90;;
41305;SDS011;27051;50.376;19.152;2023-08-06T10:51:15;1.20;;;0.90;;
41305;SDS011;27051;50.376;19.152;2023-08-06T10:53:42;4.60;;;1.20;;
41305;SDS011;27051;50.376;19.152;2023-08-06T10:56:13;2.30;;;1.50;;
41305;SDS011;27051;50.376;19.152;2023-08-06T10:59:01;1.50;;;1.40;;
41305;SDS011;27051;50.376;19.152;2023-08-06T11:01:29;2.20;;;1.50;;
41305;SDS011;27051;50.376;19.152;2023-08-06T11:03:56;2.50;;;1.60;;
